• Join FlightAware (Why Join?)
  • Login
  • US Flag 
06:04AM EDT


 

Airport Tracker/Info


-or-


 

Live Flight TrackerFlight Track Log ✈ AAL1642 ✈ 26-Apr-2013 ✈ KORD - KRDU

Flight Track Log - Related Links

Times and Time Zones

All times are in EDT time to prevent confusion due to time zone crossing. See the AAL1642 flight status page for this flight to view local times or setup timezone preferences in your user account.

Time Position Orientation Groundspeed Altitude Reporting Facility
EDT Latitude Longitude Course Direction KTS MPH feet Rate Location/Type
12:07PM 41.9167 -87.9000 167° South 173 199 3,300  Level Chicago TRACON
12:08PM 41.7425 -87.4942 158° South  Level Estimated
12:08PM 41.8122 -87.8867 175° South 244 281 7,300  Level Chicago Center
12:09PM 41.6625 -87.3575 153° Southeast  Level Estimated
12:09PM 41.7428 -87.8356 151° Southeast 289 333 10,600  Level Chicago Center
12:10PM 41.5823 -87.2210 166° South  Level Estimated
12:10PM 41.6742 -87.7739 146° Southeast 297 342 13,800  Level Chicago Center
12:11PM 41.5019 -87.0849 163° South  Level Estimated
12:11PM 41.5972 -87.7144 150° Southeast 312 359 15,600  Level Chicago Center
12:12PM 41.4302 -86.9640 167° South  Level Estimated
12:12PM 41.4881 -87.6200 147° Southeast 385 443 17,500  Level Chicago Center
12:13PM 41.3839 -87.5656 159° South 404 465 19,800 1,740 Climbing Chicago Center
12:14PM 41.2719 -87.5453 172° South 405 466 21,200 1,560 Climbing Chicago Center
12:15PM 41.1531 -87.5203 171° South 427 491 23,100 1,740 Climbing Chicago Center
12:16PM 41.0297 -87.4867 168° South 447 514 24,800 1,680 Climbing Chicago Center
12:17PM 40.9058 -87.4531 168° South 454 522 26,600 1,500 Climbing Chicago Center
12:19PM 40.7781 -87.4211 169° South 468 539 27,900 1,800 Climbing Chicago Center
12:20PM 40.6294 -87.3811 168° South 456 525 30,400 1,980 Climbing Chicago Center
12:21PM 40.5075 -87.3478 168° South 450 518 32,000 1,320 Climbing Chicago Center
12:22PM 40.3914 -87.2800 156° South 479 551 33,200 1,080 Climbing Chicago Center
12:23PM 40.2831 -87.1783 144° Southeast 480 552 34,300 780 Climbing Chicago Center
12:24PM 40.1753 -87.0758 144° Southeast 477 549 34,900 300 Climbing Chicago Center
12:25PM 40.0647 -86.9747 145° Southeast 482 555 35,000  Climbing Chicago Center
12:26PM 39.9525 -86.8728 145° Southeast 485 558 35,000  Level Indianapolis Center
12:27PM 39.8369 -86.7875 150° Southeast 477 549 35,000  Level Indianapolis Center
12:28PM 39.7181 -86.7189 156° South 468 539 35,000  Level Indianapolis Center
12:29PM 39.5794 -86.6331 154° Southeast 474 545 35,000  Level Indianapolis Center
12:30PM 39.4758 -86.5192 140° Southeast 506 582 35,000  Level Indianapolis Center
12:31PM 39.4136 -86.3469 115° Southeast 529 609 35,000  Level Indianapolis Center
12:32PM 39.3525 -86.1744 115° Southeast 531 611 35,000  Level Indianapolis Center
12:33PM 39.2897 -86.0033 115° Southeast 529 609 35,000 -60 Level Indianapolis Center
12:34PM 39.2158 -85.8039 116° Southeast 526 605 34,900 -60 Descending Indianapolis Center
12:35PM 39.1533 -85.6311 115° Southeast 531 611 34,900  Level Indianapolis Center
12:36PM 39.1064 -85.4486 108° East 534 615 35,000  Climbing Indianapolis Center
12:37PM 39.0553 -85.2697 110° East 533 613 35,000  Level Indianapolis Center
12:38PM 39.0050 -85.0881 110° East 537 618 35,000 -60 Level Indianapolis Center
12:39PM 38.9514 -84.9086 111° Southeast 534 615 34,900 -60 Descending Indianapolis Center
12:40PM 38.8925 -84.6986 110° East 533 613 34,900  Level Indianapolis Center
12:41PM 38.8383 -84.5139 111° Southeast 537 618 34,900  Level Indianapolis Center
12:43PM 38.7641 -84.3242 110° East  Level FlightAware Approximate
12:43PM 38.7317 -84.1500 110° East 544 626 35,000  Level Indianapolis Center
12:44PM 38.6764 -83.9692 111° Southeast 544 626 35,000  Level Indianapolis Center
12:45PM 38.6197 -83.7772 111° Southeast 541 623 35,000  Level Indianapolis Center
12:46PM 38.5644 -83.5986 112° Southeast 539 620 35,000  Level Indianapolis Center
12:47PM 38.5106 -83.4200 111° Southeast 537 618 35,000 -60 Level Indianapolis Center
12:48PM 38.4558 -83.2389 111° Southeast 540 621 34,900 -60 Descending Indianapolis Center
12:49PM 38.3922 -83.0308 111° Southeast 540 621 34,900  Level Indianapolis Center
12:50PM 38.3361 -82.8497 112° Southeast 547 629 35,000  Climbing Indianapolis Center
12:51PM 38.2792 -82.6708 112° Southeast 545 627 35,000  Level Indianapolis Center
12:52PM 38.2203 -82.4819 112° Southeast 550 633 35,100  Climbing Indianapolis Center
12:54PM 38.1433 -82.3206 121° Southeast 541 623 35,000 -60 Descending Indianapolis Center
12:55PM 38.0758 -82.1522 117° Southeast 540 621 35,000  Level Indianapolis Center
12:56PM 38.0178 -81.9756 113° Southeast 545 627 35,000  Level Indianapolis Center
12:57PM 37.9569 -81.7994 114° Southeast 548 631 35,000 -180 Level Indianapolis Center
12:58PM 37.8842 -81.5886 114° Southeast 548 631 34,700 -660 Descending Indianapolis Center
12:59PM 37.8189 -81.4028 114° Southeast 545 627 33,700 -960 Descending Indianapolis Center
01:00PM 37.7586 -81.2394 115° Southeast 531 611 32,700 -1,320 Descending Washington Center
01:01PM 37.6978 -81.0644 114° Southeast 531 611 31,000 -1,680 Descending Washington Center
01:02PM 37.6386 -80.8975 114° Southeast 536 617 29,400 -1,020 Descending Washington Center
01:03PM 37.5717 -80.7119 114° Southeast 536 617 29,000 -360 Descending Washington Center
01:04PM 37.5119 -80.5428 114° Southeast 531 611 28,700 -660 Descending Washington Center
01:05PM 37.4539 -80.3822 114° Southeast 525 604 27,700 -960 Descending Washington Center
01:06PM 37.3936 -80.2189 115° Southeast 518 596 26,800 -960 Descending Washington Center
01:07PM 37.3383 -80.0772 116° Southeast 508 585 25,800 -1,020 Descending Washington Center
01:08PM 37.2581 -79.9392 126° Southeast 501 577 24,800 -960 Descending Washington Center
01:09PM 37.1750 -79.8069 128° Southeast 491 565 23,900 -900 Descending Washington Center
01:10PM 37.0883 -79.6667 128° Southeast 473 544 23,000 -480 Descending Washington Center
01:11PM 37.0089 -79.5403 128° Southeast 467 537 23,000 -600 Level Washington Center
01:12PM 36.9275 -79.4139 129° Southeast 467 537 21,900 -1,920 Descending Washington Center
01:13PM 36.8600 -79.3094 129° Southeast 457 526 19,300 -1,920 Descending Washington Center
01:14PM 36.7903 -79.1969 128° Southeast 436 502 18,100 -1,440 Descending Washington Center
01:15PM 36.7225 -79.0903 128° Southeast 407 468 16,400 -1,980 Descending Washington Center
01:16PM 36.6414 -79.0089 141° Southeast 371 427 14,200 -2,220 Descending Washington Center
01:16PM 36.5794 -78.9881 165° South 347 399 12,900 -1,920 Descending Washington Center
01:17PM 36.5464 -78.9789 167° South 332 382 12,300 -1,800 Descending Washington Center
01:17PM 36.4883 -78.9661 170° South 331 381 11,100 -1,920 Descending Washington Center
01:18PM 36.4572 -78.9544 163° South 332 382 10,500 -1,140 Descending Washington Center
01:18PM 36.3972 -78.9364 166° South 330 380 10,000 -540 Descending Washington Center
01:19PM 36.3725 -78.9300 168° South 342 394 10,000 -300 Level Washington Center
01:20PM 36.2894 -78.9083 168° South 317 365 9,700 -1,080 Descending Washington Center
01:21PM 36.2192 -78.8850 165° South 282 325 8,100 -960 Descending Washington Center
01:22PM 36.1531 -78.8667 167° South 275 316 7,900 -120 Descending Washington Center
01:22PM 36.1386 -78.8611 163° South 289 333 8,000 60 Climbing Washington Center
01:22PM 36.0825 -78.8483 170° South 239 275 8,000 -120 Level Washington Center
01:23PM 36.0658 -78.8450 171° South 260 299 7,900  Descending Washington Center
01:24PM 36.0161 -78.8406 176° South 243 280 8,000 60 Climbing Washington Center
01:24PM 35.9992 -78.8422 185° South 249 287 8,000 -720 Level Washington Center
01:25PM 35.9550 -78.8611 199° South 237 273 7,300 -1,200 Descending Washington Center
01:25PM 35.9419 -78.8758 222° Southwest 233 268 6,800 -1,620 Descending Washington Center
01:26PM 35.9014 -78.9128 216° Southwest 222 255 5,700 -1,560 Descending Washington Center
01:26PM 35.8928 -78.9250 229° Southwest 228 262 5,300 -1,500 Descending Washington Center
01:27PM 35.8542 -78.9569 214° Southwest 223 257 4,200 -1,500 Descending Washington Center